Time;durP1;ratioP1;P1;durP2;ratioP2;P2;SDS_P1;SDS_P2;PMS_P1;PMS_P2;Temp;Humidity;BMP_temperature;BMP_pressure;BME280_temperature;BME280_humidity;BME280_pressure;Samples;Min_cycle;Max_cycle;Signal;HPM_P1;HPM_P2
2024/01/10 00:00:27;;;;;;;17.70;8.27;;;-7.50;99.90;;;;;;4944736;29;20031;-90
2024/01/10 00:02:53;;;;;;;13.13;6.65;;;-7.50;99.90;;;;;;4947862;28;20042;-88
2024/01/10 00:05:19;;;;;;;20.05;8.50;;;-7.40;99.90;;;;;;4930986;29;20385;-87
2024/01/10 00:07:45;;;;;;;19.13;8.07;;;-7.40;99.90;;;;;;4917657;29;20580;-88
2024/01/10 00:10:11;;;;;;;18.52;8.35;;;-7.30;99.90;;;;;;4943877;29;20039;-88
2024/01/10 00:12:37;;;;;;;16.70;8.20;;;-7.30;99.90;;;;;;4955897;28;20043;-88
2024/01/10 00:15:04;;;;;;;14.88;6.93;;;-7.30;99.90;;;;;;4939855;29;20028;-87
2024/01/10 00:17:30;;;;;;;14.32;6.60;;;-7.30;99.90;;;;;;4947265;28;20034;-88
2024/01/10 00:19:56;;;;;;;12.35;6.10;;;-7.40;99.90;;;;;;4924998;29;20035;-88
2024/01/10 00:22:22;;;;;;;18.30;7.35;;;-7.40;99.90;;;;;;4939445;28;20029;-90
2024/01/10 00:24:48;;;;;;;14.40;6.78;;;-7.50;99.90;;;;;;4935253;29;20027;-88
2024/01/10 00:27:14;;;;;;;16.27;6.82;;;-7.50;99.90;;;;;;4927263;28;20082;-89
2024/01/10 00:29:40;;;;;;;18.08;7.10;;;-7.50;99.90;;;;;;4947196;28;20039;-89
2024/01/10 00:32:06;;;;;;;14.75;7.10;;;-7.50;99.90;;;;;;4939607;29;20035;-89
2024/01/10 00:34:32;;;;;;;14.82;7.38;;;-7.50;99.90;;;;;;4930394;29;20043;-89
2024/01/10 00:36:58;;;;;;;14.15;6.80;;;-7.40;99.90;;;;;;4925332;29;20506;-88
2024/01/10 00:39:23;;;;;;;12.35;6.10;;;-7.50;99.90;;;;;;4931414;28;20027;-88
2024/01/10 00:41:49;;;;;;;15.40;6.72;;;-7.50;99.90;;;;;;4940558;29;20035;-88
2024/01/10 00:44:15;;;;;;;12.60;6.30;;;-7.50;99.90;;;;;;4931687;29;20122;-90
2024/01/10 00:46:40;;;;;;;16.35;6.80;;;-7.50;99.90;;;;;;4922844;29;20039;-87
2024/01/10 00:49:06;;;;;;;15.73;6.93;;;-7.50;99.90;;;;;;4955011;28;20035;-88
2024/01/10 00:51:32;;;;;;;15.45;7.13;;;-7.50;99.90;;;;;;4946535;28;20043;-88
2024/01/10 00:53:58;;;;;;;18.85;7.30;;;-7.50;99.90;;;;;;4938961;28;20096;-88
2024/01/10 00:56:42;;;;;;;17.17;7.23;;;-7.50;99.90;;;;;;4942682;28;20045;-87
2024/01/10 00:59:08;;;;;;;14.40;6.70;;;-7.50;99.90;;;;;;4922526;29;20276;-86
2024/01/10 01:01:33;;;;;;;16.17;7.13;;;-7.50;99.90;;;;;;4938424;28;20074;-89
2024/01/10 01:03:59;;;;;;;16.52;6.95;;;-7.50;99.90;;;;;;4944452;28;20634;-88
2024/01/10 01:06:25;;;;;;;14.10;6.05;;;-7.50;99.90;;;;;;4941847;28;20035;-88
2024/01/10 01:08:51;;;;;;;11.30;5.93;;;-7.50;99.90;;;;;;4929006;29;20027;-86
2024/01/10 01:11:16;;;;;;;13.70;6.00;;;-7.50;99.90;;;;;;4935318;29;20024;-89
2024/01/10 01:13:42;;;;;;;13.20;6.38;;;-7.40;99.90;;;;;;4944221;28;20104;-88
2024/01/10 01:16:09;;;;;;;14.20;5.90;;;-7.40;99.90;;;;;;4922029;29;20059;-89
2024/01/10 01:18:35;;;;;;;13.48;6.07;;;-7.40;99.90;;;;;;4942645;28;20038;-88
2024/01/10 01:21:02;;;;;;;13.05;6.10;;;-7.40;99.90;;;;;;4941356;29;20039;-88
2024/01/10 01:23:28;;;;;;;11.25;5.60;;;-7.40;99.90;;;;;;4922725;28;20050;-88
2024/01/10 01:25:53;;;;;;;13.05;5.90;;;-7.30;99.90;;;;;;4926272;28;20031;-89
2024/01/10 01:28:19;;;;;;;13.52;6.10;;;-7.30;99.90;;;;;;4928678;29;20408;-88
2024/01/10 01:30:45;;;;;;;12.70;5.85;;;-7.30;99.90;;;;;;4941177;29;20451;-88
2024/01/10 01:33:11;;;;;;;13.10;6.25;;;-7.30;99.90;;;;;;4946813;28;20043;-89
2024/01/10 01:35:36;;;;;;;12.95;5.63;;;-7.20;99.90;;;;;;4929159;28;20019;-89
2024/01/10 01:38:02;;;;;;;14.82;6.20;;;-7.30;99.90;;;;;;4911643;29;20058;-88
2024/01/10 01:40:28;;;;;;;11.80;5.90;;;-7.30;99.90;;;;;;4938017;28;20043;-89
2024/01/10 01:42:54;;;;;;;14.70;6.60;;;-7.30;99.90;;;;;;4919301;29;20035;-88
2024/01/10 01:45:20;;;;;;;13.43;6.15;;;-7.30;99.90;;;;;;4935200;28;20039;-89
2024/01/10 01:47:45;;;;;;;14.25;6.05;;;-7.30;99.90;;;;;;4921198;29;20045;-88
2024/01/10 01:50:11;;;;;;;12.75;5.72;;;-7.30;99.90;;;;;;4937119;28;20035;-88
2024/01/10 01:52:37;;;;;;;13.57;5.78;;;-7.30;99.90;;;;;;4906380;28;20036;-89
2024/01/10 01:55:06;;;;;;;11.15;5.65;;;-7.30;99.90;;;;;;4935761;29;20708;-88
2024/01/10 01:57:32;;;;;;;12.27;5.20;;;-7.40;99.90;;;;;;4937311;28;20051;-88
2024/01/10 01:59:58;;;;;;;13.43;6.18;;;-7.40;99.90;;;;;;4933058;29;20514;-88
2024/01/10 02:02:24;;;;;;;11.18;6.13;;;-7.40;99.90;;;;;;4922511;28;20063;-88
2024/01/10 02:04:50;;;;;;;10.52;5.05;;;-7.40;99.90;;;;;;4923902;28;20034;-87
2024/01/10 02:07:16;;;;;;;12.25;5.72;;;-7.40;99.90;;;;;;4943786;28;20421;-88
2024/01/10 02:09:42;;;;;;;12.43;5.80;;;-7.50;99.90;;;;;;4945255;28;20110;-89
2024/01/10 02:12:08;;;;;;;15.10;6.07;;;-7.40;99.90;;;;;;4937079;28;20027;-88
2024/01/10 02:14:34;;;;;;;14.35;5.88;;;-7.40;99.90;;;;;;4958411;28;20043;-88
2024/01/10 02:17:00;;;;;;;12.32;5.82;;;-7.50;99.90;;;;;;4961215;28;20027;-89
2024/01/10 02:19:27;;;;;;;14.60;6.10;;;-7.50;99.90;;;;;;4929823;28;20027;-89
2024/01/10 02:21:53;;;;;;;13.55;6.30;;;-7.40;99.90;;;;;;4957159;28;20030;-88
2024/01/10 02:24:19;;;;;;;13.02;6.15;;;-7.50;99.90;;;;;;4959813;28;20024;-88
2024/01/10 02:26:44;;;;;;;10.77;6.20;;;-7.50;99.90;;;;;;4941702;28;20023;-87
2024/01/10 02:29:10;;;;;;;12.80;5.38;;;-7.50;99.90;;;;;;4937985;29;20035;-88
2024/01/10 02:31:36;;;;;;;11.07;5.72;;;-7.50;99.90;;;;;;4954656;28;20035;-88
2024/01/10 02:34:02;;;;;;;12.98;5.75;;;-7.40;99.90;;;;;;4937532;29;20126;-88
2024/01/10 02:36:27;;;;;;;13.20;5.78;;;-7.40;99.90;;;;;;4922702;28;20035;-87
2024/01/10 02:38:53;;;;;;;12.68;6.20;;;-7.50;99.90;;;;;;4959828;28;20027;-88
2024/01/10 02:41:19;;;;;;;12.85;6.28;;;-7.50;99.90;;;;;;4941325;28;20070;-88
2024/01/10 02:43:44;;;;;;;15.77;6.82;;;-7.40;99.90;;;;;;4922205;28;20054;-88
2024/01/10 02:46:10;;;;;;;12.32;5.65;;;-7.30;99.90;;;;;;4935207;28;20027;-88
2024/01/10 02:48:36;;;;;;;14.25;5.82;;;-7.10;99.90;;;;;;4938407;28;20023;-89
2024/01/10 02:51:02;;;;;;;15.85;6.35;;;-7.00;99.90;;;;;;4941359;28;20066;-88
2024/01/10 02:53:27;;;;;;;13.48;6.22;;;-6.90;99.90;;;;;;4928895;28;20027;-87
2024/01/10 02:55:53;;;;;;;11.63;5.40;;;-6.90;99.90;;;;;;4923135;29;20035;-88
2024/01/10 02:58:21;;;;;;;11.40;5.40;;;-6.80;99.90;;;;;;4957294;28;20617;-89
2024/01/10 03:00:47;;;;;;;11.73;6.03;;;-6.80;99.90;;;;;;4927825;28;20527;-88
2024/01/10 03:03:12;;;;;;;12.93;5.78;;;-6.80;99.90;;;;;;4921556;28;20031;-89
2024/01/10 03:05:38;;;;;;;16.25;5.88;;;-6.90;99.90;;;;;;4941524;28;20043;-88
2024/01/10 03:08:06;;;;;;;9.68;5.47;;;-6.90;99.90;;;;;;4922538;29;20042;-87
2024/01/10 03:10:32;;;;;;;10.25;5.25;;;-7.00;99.90;;;;;;4940697;28;20511;-87
2024/01/10 03:12:57;;;;;;;13.77;5.68;;;-7.10;99.90;;;;;;4929231;28;20034;-89
2024/01/10 03:15:23;;;;;;;13.93;5.60;;;-7.10;99.90;;;;;;4911468;28;20675;-88
2024/01/10 03:17:49;;;;;;;16.00;6.28;;;-7.20;99.90;;;;;;4940941;29;20524;-88
2024/01/10 03:20:15;;;;;;;13.18;6.03;;;-7.20;99.90;;;;;;4935143;29;20416;-88
2024/01/10 03:22:41;;;;;;;15.15;5.85;;;-7.20;99.90;;;;;;4928371;29;20178;-89
2024/01/10 03:25:07;;;;;;;13.75;5.32;;;-7.30;99.90;;;;;;4938467;29;20059;-88
2024/01/10 03:27:33;;;;;;;11.63;5.50;;;-7.30;99.90;;;;;;4953284;28;20047;-88
2024/01/10 03:29:58;;;;;;;13.27;6.07;;;-7.30;99.90;;;;;;4922239;29;20031;-88
2024/01/10 03:32:24;;;;;;;11.05;5.10;;;-7.30;99.90;;;;;;4943870;28;20680;-88
2024/01/10 03:34:52;;;;;;;12.15;5.35;;;-7.30;99.90;;;;;;4905808;29;20043;-89
2024/01/10 03:37:18;;;;;;;14.55;5.72;;;-7.30;99.90;;;;;;4936991;29;20050;-89
2024/01/10 03:39:44;;;;;;;15.60;6.32;;;-7.30;99.90;;;;;;4939641;28;20118;-88
2024/01/10 03:42:10;;;;;;;11.32;5.75;;;-7.30;99.90;;;;;;4937309;29;20023;-90
2024/01/10 03:44:36;;;;;;;12.00;6.00;;;-7.30;99.90;;;;;;4958957;28;20563;-87
2024/01/10 03:47:02;;;;;;;14.68;5.75;;;-7.20;99.90;;;;;;4927529;28;20440;-89
2024/01/10 03:49:28;;;;;;;13.48;5.82;;;-7.20;99.90;;;;;;4924884;28;20124;-88
2024/01/10 03:51:54;;;;;;;13.95;6.00;;;-7.20;99.90;;;;;;4956009;28;20139;-88
2024/01/10 03:54:20;;;;;;;11.30;5.75;;;-7.30;99.90;;;;;;4927100;29;20042;-87
2024/01/10 03:56:45;;;;;;;12.23;5.93;;;-7.30;99.90;;;;;;4936975;28;20046;-87
2024/01/10 03:59:11;;;;;;;12.80;5.88;;;-7.20;99.90;;;;;;4904665;29;20040;-88
2024/01/10 04:01:39;;;;;;;16.02;6.25;;;-7.20;99.90;;;;;;4939990;28;20089;-87
2024/01/10 04:04:05;;;;;;;12.43;5.88;;;-7.30;99.90;;;;;;4926013;29;20027;-88
2024/01/10 04:06:31;;;;;;;12.93;5.65;;;-7.30;99.90;;;;;;4936105;28;20043;-88
2024/01/10 04:08:56;;;;;;;11.35;5.28;;;-7.30;99.90;;;;;;4921194;29;20031;-88
2024/01/10 04:11:22;;;;;;;15.43;5.72;;;-7.30;99.90;;;;;;4922268;28;20036;-88
2024/01/10 04:13:48;;;;;;;14.63;5.65;;;-7.30;99.90;;;;;;4920039;29;20038;-88
2024/01/10 04:16:14;;;;;;;13.43;5.90;;;-7.30;99.90;;;;;;4928361;29;20038;-88
2024/01/10 04:18:40;;;;;;;12.75;5.85;;;-7.30;99.90;;;;;;4930335;28;20035;-86
2024/01/10 04:21:06;;;;;;;14.80;6.15;;;-7.30;99.90;;;;;;4927058;28;20035;-87
2024/01/10 04:23:33;;;;;;;15.15;5.90;;;-7.30;99.90;;;;;;4938515;28;20082;-88
2024/01/10 04:26:01;;;;;;;11.55;5.43;;;-7.30;99.90;;;;;;4923450;28;20062;-88
2024/01/10 04:28:27;;;;;;;12.90;5.85;;;-7.30;99.90;;;;;;4938519;29;20527;-89
2024/01/10 04:30:53;;;;;;;11.85;6.15;;;-7.30;99.90;;;;;;4940981;29;20035;-88
2024/01/10 04:33:18;;;;;;;15.70;6.15;;;-7.30;99.90;;;;;;4928264;29;20090;-88
2024/01/10 04:35:44;;;;;;;11.65;5.28;;;-7.30;99.90;;;;;;4928087;28;20028;-88
2024/01/10 04:38:10;;;;;;;14.10;5.95;;;-7.30;99.90;;;;;;4960218;28;20542;-87
2024/01/10 04:40:36;;;;;;;12.73;6.20;;;-7.40;99.90;;;;;;4947645;28;20515;-87
2024/01/10 04:43:01;;;;;;;13.52;5.53;;;-7.30;99.90;;;;;;4929743;29;20043;-87
2024/01/10 04:45:27;;;;;;;11.30;5.38;;;-7.30;99.90;;;;;;4927404;28;20031;-88
2024/01/10 04:47:53;;;;;;;12.63;6.00;;;-7.30;99.90;;;;;;4947103;28;20050;-89
2024/01/10 04:50:18;;;;;;;12.00;5.70;;;-7.30;99.90;;;;;;4940481;29;20125;-88
2024/01/10 04:52:44;;;;;;;12.70;5.78;;;-7.40;99.90;;;;;;4908067;28;20055;-88
2024/01/10 04:55:10;;;;;;;10.27;5.90;;;-7.40;99.90;;;;;;4942400;28;20031;-88
2024/01/10 04:57:36;;;;;;;10.93;5.15;;;-7.40;99.90;;;;;;4915436;28;20098;-88
2024/01/10 05:00:04;;;;;;;12.07;5.90;;;-7.30;99.90;;;;;;4917398;29;20039;-88
2024/01/10 05:02:30;;;;;;;12.43;6.57;;;-7.30;99.90;;;;;;4945772;28;20118;-87
2024/01/10 05:04:55;;;;;;;14.70;6.30;;;-7.30;99.90;;;;;;4940750;28;20135;-88
2024/01/10 05:07:21;;;;;;;12.65;6.30;;;-7.30;99.90;;;;;;4927152;29;20113;-88
2024/01/10 05:09:47;;;;;;;14.10;6.07;;;-7.30;99.90;;;;;;4933579;28;20133;-89
2024/01/10 05:12:13;;;;;;;11.73;5.97;;;-7.20;99.90;;;;;;4930126;28;20031;-89
2024/01/10 05:14:39;;;;;;;15.70;6.70;;;-7.30;99.90;;;;;;4940918;28;20031;-87
2024/01/10 05:17:05;;;;;;;16.10;6.72;;;-7.30;99.90;;;;;;4930119;28;20030;-88
2024/01/10 05:19:31;;;;;;;15.75;6.30;;;-7.30;99.90;;;;;;4923588;28;20054;-89
2024/01/10 05:21:57;;;;;;;12.57;6.07;;;-7.30;99.90;;;;;;4926772;29;20110;-88
2024/01/10 05:24:23;;;;;;;13.77;6.13;;;-7.30;99.90;;;;;;4937640;29;20035;-87
2024/01/10 05:26:52;;;;;;;16.30;7.00;;;-7.30;99.90;;;;;;4959195;28;20122;-88
2024/01/10 05:29:19;;;;;;;13.13;6.15;;;-7.30;99.90;;;;;;4954442;28;20031;-88
2024/01/10 05:31:46;;;;;;;14.25;6.85;;;-7.30;99.90;;;;;;4924827;28;20035;-88
2024/01/10 05:34:12;;;;;;;14.90;6.40;;;-7.30;99.90;;;;;;4926689;29;20038;-88
2024/01/10 05:36:38;;;;;;;12.10;5.47;;;-7.30;99.90;;;;;;4923012;28;20035;-89
2024/01/10 05:39:04;;;;;;;16.42;7.10;;;-7.30;99.90;;;;;;4942995;29;20630;-88
2024/01/10 05:41:29;;;;;;;14.63;5.95;;;-7.30;99.90;;;;;;4939230;28;20042;-88
2024/01/10 05:43:55;;;;;;;12.32;5.95;;;-7.30;99.90;;;;;;4945525;29;20035;-90
2024/01/10 05:46:21;;;;;;;13.80;5.45;;;-7.30;99.90;;;;;;4907123;29;20031;-89
2024/01/10 05:48:47;;;;;;;12.73;5.93;;;-7.30;99.90;;;;;;4922458;29;20470;-88
2024/01/10 05:51:14;;;;;;;13.13;5.88;;;-7.40;99.90;;;;;;4928733;29;20117;-88
2024/01/10 05:53:40;;;;;;;13.48;5.88;;;-7.30;99.90;;;;;;4920392;29;20065;-88
2024/01/10 05:56:07;;;;;;;13.30;6.18;;;-7.30;99.90;;;;;;4942240;28;20031;-89
2024/01/10 05:58:32;;;;;;;13.75;6.03;;;-7.40;99.90;;;;;;4941384;28;20614;-88
2024/01/10 06:00:58;;;;;;;15.35;6.05;;;-7.30;99.90;;;;;;4927418;29;20035;-88
2024/01/10 06:03:24;;;;;;;11.98;5.68;;;-7.40;99.90;;;;;;4944064;28;20039;-88
2024/01/10 06:05:50;;;;;;;12.13;5.93;;;-7.40;99.90;;;;;;4914138;28;20098;-88
2024/01/10 06:08:16;;;;;;;15.57;7.43;;;-7.40;99.90;;;;;;4932289;29;20043;-88
2024/01/10 06:10:42;;;;;;;12.32;5.97;;;-7.30;99.90;;;;;;4944571;28;20527;-88
2024/01/10 06:13:08;;;;;;;11.40;6.10;;;-7.30;99.90;;;;;;4909458;29;20186;-89
2024/01/10 06:15:34;;;;;;;13.77;6.35;;;-7.40;99.90;;;;;;4931305;28;20062;-87
2024/01/10 06:18:00;;;;;;;12.85;6.45;;;-7.40;99.90;;;;;;4941869;29;20035;-89
2024/01/10 06:20:25;;;;;;;17.40;6.95;;;-7.40;99.90;;;;;;4938137;28;20039;-87
2024/01/10 06:22:51;;;;;;;12.90;6.00;;;-7.40;99.90;;;;;;4957712;28;20035;-88
2024/01/10 06:25:17;;;;;;;11.88;6.60;;;-7.40;99.90;;;;;;4943582;29;20094;-89
2024/01/10 06:27:43;;;;;;;15.27;7.28;;;-7.40;99.90;;;;;;4941506;28;20046;-88
2024/01/10 06:30:09;;;;;;;12.80;6.35;;;-7.40;99.90;;;;;;4957269;28;20046;-88
2024/01/10 06:32:55;;;;;;;16.48;6.57;;;-7.40;99.90;;;;;;4926279;28;20031;-88
2024/01/10 06:35:21;;;;;;;14.75;6.68;;;-7.40;99.90;;;;;;4953151;28;20035;-88
2024/01/10 06:37:46;;;;;;;15.82;6.75;;;-7.40;99.90;;;;;;4956601;28;20227;-88
2024/01/10 06:40:12;;;;;;;16.85;7.18;;;-7.30;99.90;;;;;;4927292;29;20098;-88
2024/01/10 06:42:39;;;;;;;16.02;6.50;;;-7.30;99.90;;;;;;4909360;28;20125;-88
2024/01/10 06:45:07;;;;;;;10.75;5.55;;;-7.30;99.90;;;;;;4922688;28;20035;-88
2024/01/10 06:47:33;;;;;;;14.60;6.82;;;-7.30;99.90;;;;;;4945364;28;20072;-87
2024/01/10 06:49:59;;;;;;;14.50;6.63;;;-7.40;99.90;;;;;;4927050;29;20031;-88
2024/01/10 06:52:26;;;;;;;15.75;7.22;;;-7.40;99.90;;;;;;4927570;28;20042;-87
2024/01/10 06:54:51;;;;;;;19.40;6.90;;;-7.30;99.90;;;;;;4939400;28;20062;-88
2024/01/10 06:57:17;;;;;;;13.90;6.90;;;-7.30;99.90;;;;;;4919589;29;20042;-87
2024/01/10 06:59:44;;;;;;;15.05;7.05;;;-7.30;99.90;;;;;;4955019;28;20495;-89
2024/01/10 07:02:09;;;;;;;17.55;7.68;;;-7.30;99.90;;;;;;4941141;29;20070;-89
2024/01/10 07:04:37;;;;;;;13.88;7.25;;;-7.30;99.90;;;;;;4947216;28;20133;-89
2024/01/10 07:07:03;;;;;;;17.40;7.18;;;-7.20;99.90;;;;;;4925320;29;20039;-88
2024/01/10 07:09:29;;;;;;;16.80;7.30;;;-7.20;99.90;;;;;;4943220;28;20031;-88
2024/01/10 07:11:55;;;;;;;15.27;7.13;;;-7.20;99.90;;;;;;4923219;29;20061;-88
2024/01/10 07:14:21;;;;;;;15.35;6.93;;;-7.20;99.90;;;;;;4941208;28;20027;-88
2024/01/10 07:16:47;;;;;;;12.15;6.75;;;-7.20;99.90;;;;;;4936984;29;20389;-88
2024/01/10 07:19:13;;;;;;;11.98;6.15;;;-7.20;99.90;;;;;;4953094;28;20033;-88
2024/01/10 07:21:40;;;;;;;15.30;6.55;;;-7.30;99.90;;;;;;4937268;29;20027;-88
2024/01/10 07:24:08;;;;;;;14.38;6.45;;;-7.30;99.90;;;;;;4936950;29;20043;-89
2024/01/10 07:26:34;;;;;;;16.65;7.22;;;-7.30;99.90;;;;;;4926856;29;20039;-88
2024/01/10 07:29:02;;;;;;;14.13;6.03;;;-7.30;99.90;;;;;;4953012;29;20191;-88
2024/01/10 07:31:31;;;;;;;16.02;7.13;;;-7.30;99.90;;;;;;4969459;28;20097;-88
2024/01/10 07:33:57;;;;;;;18.70;8.13;;;-7.30;99.90;;;;;;4927993;29;20132;-88
2024/01/10 07:36:29;;;;;;;20.02;10.30;;;-7.30;99.90;;;;;;4917762;29;20040;-88
2024/01/10 07:38:57;;;;;;;16.38;8.30;;;-7.30;99.90;;;;;;4933566;29;20035;-88
2024/01/10 07:41:23;;;;;;;16.00;7.68;;;-7.20;99.90;;;;;;4933504;29;20036;-89
2024/01/10 07:43:49;;;;;;;14.43;7.18;;;-7.10;99.90;;;;;;4936555;29;20055;-86
2024/01/10 07:46:15;;;;;;;14.70;7.00;;;-7.10;99.90;;;;;;4949843;29;20114;-87
2024/01/10 07:48:40;;;;;;;15.95;7.40;;;-7.10;99.90;;;;;;4921810;29;20519;-87
2024/01/10 07:51:06;;;;;;;14.98;6.90;;;-7.00;99.90;;;;;;4922136;29;20467;-87
2024/01/10 07:53:33;;;;;;;15.48;7.95;;;-7.00;99.90;;;;;;4919454;29;20122;-87
2024/01/10 07:55:59;;;;;;;18.27;7.90;;;-6.90;99.90;;;;;;4952521;28;20037;-87
2024/01/10 07:58:24;;;;;;;16.80;7.00;;;-6.90;99.90;;;;;;4953321;29;20028;-87
2024/01/10 08:00:51;;;;;;;20.52;7.93;;;-6.90;99.90;;;;;;4921745;29;20451;-87
2024/01/10 08:03:17;;;;;;;15.63;7.57;;;-6.80;99.90;;;;;;4939135;29;20046;-88
2024/01/10 08:05:43;;;;;;;14.02;6.75;;;-6.70;99.90;;;;;;4940444;28;20043;-88
2024/01/10 08:08:09;;;;;;;15.95;7.50;;;-6.70;99.90;;;;;;4943835;29;20122;-88
2024/01/10 08:10:34;;;;;;;14.85;6.20;;;-6.60;99.90;;;;;;4910286;28;20130;-88
2024/01/10 08:13:00;;;;;;;12.75;6.20;;;-6.60;99.90;;;;;;4958675;28;20035;-88
2024/01/10 08:15:26;;;;;;;13.73;6.45;;;-6.50;99.90;;;;;;4925499;28;20130;-88
2024/01/10 08:17:52;;;;;;;16.00;6.47;;;-6.50;99.90;;;;;;4930422;29;20046;-90
2024/01/10 08:20:21;;;;;;;16.23;6.95;;;-6.40;99.90;;;;;;4940496;28;20059;-88
2024/01/10 08:22:47;;;;;;;17.08;7.15;;;-6.30;99.90;;;;;;4957396;28;20118;-88
2024/01/10 08:25:15;;;;;;;14.02;6.55;;;-6.20;99.90;;;;;;4924702;29;20032;-88
2024/01/10 08:27:41;;;;;;;14.38;6.55;;;-6.20;99.90;;;;;;4957874;28;20035;-88
2024/01/10 08:30:09;;;;;;;15.75;6.80;;;-6.10;99.90;;;;;;4917213;28;20583;-86
2024/01/10 08:32:36;;;;;;;13.48;6.32;;;-6.00;99.90;;;;;;4945240;28;20521;-85
2024/01/10 08:35:04;;;;;;;15.52;7.20;;;-5.90;99.90;;;;;;4933214;28;20032;-86
2024/01/10 08:37:30;;;;;;;17.95;7.70;;;-5.90;99.90;;;;;;4960115;28;20492;-87
2024/01/10 08:40:00;;;;;;;15.30;7.10;;;-5.80;99.90;;;;;;4938133;29;20079;-86
2024/01/10 08:42:25;;;;;;;14.13;6.90;;;-5.80;99.90;;;;;;4954478;28;20113;-86
2024/01/10 08:44:51;;;;;;;15.23;7.15;;;-5.60;99.90;;;;;;4935119;29;20106;-86
2024/01/10 08:47:17;;;;;;;14.75;7.28;;;-5.60;99.90;;;;;;4952370;28;20762;-86
2024/01/10 08:49:43;;;;;;;16.30;7.25;;;-5.50;99.90;;;;;;4942754;29;20496;-86
2024/01/10 08:52:08;;;;;;;13.75;7.25;;;-5.40;99.90;;;;;;4942317;28;20479;-85
2024/01/10 08:54:34;;;;;;;15.32;6.43;;;-5.30;99.90;;;;;;4955416;28;20051;-85
2024/01/10 08:57:00;;;;;;;15.50;7.30;;;-5.10;99.90;;;;;;4942825;29;20525;-84
2024/01/10 08:59:27;;;;;;;14.02;6.97;;;-5.00;99.90;;;;;;4940844;29;20027;-86
2024/01/10 09:01:53;;;;;;;13.57;6.45;;;-4.90;99.90;;;;;;4959025;28;20069;-86
2024/01/10 09:04:19;;;;;;;12.73;6.78;;;-4.80;99.90;;;;;;4954223;28;20465;-87
2024/01/10 09:06:46;;;;;;;15.07;7.65;;;-4.70;99.90;;;;;;4960066;28;20037;-86
2024/01/10 09:09:13;;;;;;;15.23;7.18;;;-4.60;99.90;;;;;;4938161;29;20047;-86
2024/01/10 09:11:39;;;;;;;17.25;8.32;;;-4.50;99.90;;;;;;4939580;28;20089;-86
2024/01/10 09:14:04;;;;;;;18.83;7.72;;;-4.40;99.90;;;;;;4955777;28;20113;-86
2024/01/10 09:16:30;;;;;;;14.20;7.40;;;-4.30;99.90;;;;;;4935855;28;20412;-86
2024/01/10 09:18:57;;;;;;;17.45;8.13;;;-4.20;99.90;;;;;;4964493;28;20031;-86
2024/01/10 09:21:25;;;;;;;15.63;7.70;;;-4.00;99.90;;;;;;4935484;29;20670;-85
2024/01/10 09:23:51;;;;;;;17.90;7.65;;;-3.90;99.90;;;;;;4941341;28;20038;-87
2024/01/10 09:26:19;;;;;;;16.42;7.97;;;-3.80;99.90;;;;;;4937617;29;20027;-86
2024/01/10 09:28:45;;;;;;;16.02;7.68;;;-3.80;99.90;;;;;;4937537;28;20098;-85
2024/01/10 09:31:11;;;;;;;17.50;8.43;;;-3.70;99.90;;;;;;4953648;28;20043;-85
2024/01/10 09:33:55;;;;;;;15.00;8.23;;;-3.70;99.90;;;;;;4929253;29;20117;-85
2024/01/10 09:36:21;;;;;;;18.08;8.25;;;-3.50;99.90;;;;;;4954297;28;20487;-84
2024/01/10 09:38:47;;;;;;;19.40;8.88;;;-3.40;99.90;;;;;;4953433;29;20106;-85
2024/01/10 09:41:14;;;;;;;14.70;7.38;;;-3.20;99.90;;;;;;4925067;28;20622;-88
2024/01/10 09:43:40;;;;;;;17.35;8.18;;;-3.10;99.90;;;;;;4943834;28;20570;-86
2024/01/10 09:46:07;;;;;;;19.42;8.95;;;-3.00;99.90;;;;;;4953000;28;20027;-87
2024/01/10 09:48:33;;;;;;;17.67;7.88;;;-2.90;99.90;;;;;;4937569;28;20031;-88
2024/01/10 09:50:59;;;;;;;14.85;7.82;;;-2.90;99.90;;;;;;4922248;29;20035;-86
2024/01/10 09:53:26;;;;;;;18.48;8.45;;;-2.80;99.90;;;;;;4938291;29;20066;-86
2024/01/10 09:55:56;;;;;;;15.48;8.30;;;-2.80;99.90;;;;;;4937596;28;20031;-87
2024/01/10 09:58:25;;;;;;;19.33;8.63;;;-2.70;99.90;;;;;;4937445;28;20118;-85
2024/01/10 10:00:51;;;;;;;19.92;8.02;;;-2.70;99.90;;;;;;4921924;29;20035;-87
2024/01/10 10:03:18;;;;;;;18.55;7.85;;;-2.70;99.90;;;;;;4942946;29;20571;-86
2024/01/10 10:05:45;;;;;;;20.42;8.82;;;-2.60;99.90;;;;;;4956114;28;20491;-87
2024/01/10 10:08:14;;;;;;;16.33;8.18;;;-2.60;99.90;;;;;;4945908;28;20078;-86
2024/01/10 10:10:44;;;;;;;21.40;9.77;;;-2.60;99.90;;;;;;4943341;28;20035;-85
2024/01/10 10:13:13;;;;;;;21.10;8.98;;;-2.30;99.90;;;;;;4937046;29;20130;-86
2024/01/10 10:15:39;;;;;;;19.70;8.63;;;-2.30;99.90;;;;;;4953154;28;20046;-85
2024/01/10 10:18:05;;;;;;;18.75;8.00;;;-2.20;99.90;;;;;;4921979;29;20035;-86
2024/01/10 10:20:32;;;;;;;17.45;8.32;;;-2.10;99.90;;;;;;4943842;29;20118;-85
2024/01/10 10:23:01;;;;;;;17.98;8.40;;;-2.10;99.90;;;;;;4958436;28;20042;-86
2024/01/10 10:25:32;;;;;;;16.65;8.52;;;-2.10;99.90;;;;;;4936896;28;20070;-84
2024/01/10 10:27:58;;;;;;;16.85;8.45;;;-2.10;99.90;;;;;;4920993;29;20035;-84
2024/01/10 10:30:24;;;;;;;16.45;8.05;;;-2.10;99.90;;;;;;4956131;28;20090;-85
2024/01/10 10:32:50;;;;;;;16.88;8.70;;;-2.10;99.90;;;;;;4944467;28;20448;-84
2024/01/10 10:35:18;;;;;;;16.35;7.93;;;-2.00;99.90;;;;;;4937704;28;20034;-84
2024/01/10 10:37:43;;;;;;;16.67;7.95;;;-2.00;99.90;;;;;;4956850;28;20031;-84
2024/01/10 10:40:11;;;;;;;18.95;9.55;;;-2.00;99.90;;;;;;4959085;28;20038;-84
2024/01/10 10:42:39;;;;;;;17.38;9.13;;;-1.90;99.90;;;;;;4955157;28;20444;-86
2024/01/10 10:45:08;;;;;;;15.95;8.45;;;-1.70;99.90;;;;;;4951943;28;20404;-85
2024/01/10 10:47:36;;;;;;;18.75;9.38;;;-1.70;99.90;;;;;;4937295;28;20040;-86
2024/01/10 10:50:04;;;;;;;17.17;9.15;;;-1.70;99.90;;;;;;4939756;29;20106;-85
2024/01/10 10:52:31;;;;;;;18.20;9.50;;;-1.70;99.90;;;;;;4920949;29;20106;-84
2024/01/10 10:54:59;;;;;;;20.65;9.25;;;-1.70;99.90;;;;;;4937735;29;20054;-84
2024/01/10 10:57:28;;;;;;;19.30;8.63;;;-1.70;99.90;;;;;;4943318;28;20023;-84
2024/01/10 10:59:57;;;;;;;19.88;9.63;;;-1.70;99.90;;;;;;4951206;28;20074;-85
2024/01/10 11:02:23;;;;;;;18.92;9.80;;;-1.60;99.90;;;;;;4939766;29;20036;-86
2024/01/10 11:04:49;;;;;;;19.33;10.15;;;-1.60;99.90;;;;;;4951989;28;20126;-84
2024/01/10 11:07:15;;;;;;;18.45;9.43;;;-1.50;99.90;;;;;;4952216;28;20116;-84
2024/01/10 11:09:44;;;;;;;17.33;8.80;;;-1.60;99.90;;;;;;4955002;28;20476;-85
2024/01/10 11:12:38;;;;;;;19.80;9.65;;;-1.50;99.90;;;;;;4955592;28;20055;-86
2024/01/10 11:15:57;;;;;;;18.23;7.90;;;-1.50;99.90;;;;;;4946484;28;20071;-86
2024/01/10 11:18:44;;;;;;;16.63;8.35;;;-1.50;99.90;;;;;;4891297;29;20029;-84
2024/01/10 11:21:38;;;;;;;18.77;8.82;;;-1.50;99.90;;;;;;4952666;28;20536;-86
2024/01/10 11:24:04;;;;;;;17.73;8.75;;;-1.40;99.90;;;;;;4952474;28;20081;-84
2024/01/10 11:26:33;;;;;;;19.90;9.40;;;-1.40;99.90;;;;;;4934737;28;20027;-85
2024/01/10 11:29:00;;;;;;;19.77;9.73;;;-1.30;99.90;;;;;;4947743;28;20491;-86
2024/01/10 11:31:30;;;;;;;21.67;9.35;;;-1.30;99.90;;;;;;4932329;29;20064;-86
2024/01/10 11:33:58;;;;;;;22.67;10.77;;;-1.20;99.90;;;;;;4953600;28;20045;-86
2024/01/10 11:36:26;;;;;;;21.77;10.15;;;-1.10;99.90;;;;;;4920794;29;20027;-85
2024/01/10 11:38:56;;;;;;;20.23;9.38;;;-1.10;99.90;;;;;;4954694;28;20041;-86
2024/01/10 11:41:36;;;;;;;17.52;9.15;;;-1.10;99.90;;;;;;4956810;28;20039;-86
2024/01/10 11:44:11;;;;;;;22.65;9.88;;;-1.10;99.90;;;;;;4917478;29;20039;-86
2024/01/10 11:46:46;;;;;;;20.15;10.10;;;-1.10;99.90;;;;;;4967634;28;20478;-86
2024/01/10 11:49:16;;;;;;;18.88;9.48;;;-1.10;99.90;;;;;;4927524;29;20051;-86
2024/01/10 11:51:43;;;;;;;20.20;10.05;;;-0.90;99.90;;;;;;4962020;28;20039;-85
2024/01/10 11:54:09;;;;;;;19.20;10.68;;;-1.00;99.90;;;;;;4941792;29;20034;-85
2024/01/10 11:56:40;;;;;;;17.63;9.75;;;-1.00;99.90;;;;;;4943038;29;20123;-86
2024/01/10 11:59:13;;;;;;;18.27;9.10;;;-1.00;99.90;;;;;;4958012;28;20027;-85
2024/01/10 12:01:40;;;;;;;20.73;10.45;;;-1.10;99.90;;;;;;4957594;28;20066;-85
2024/01/10 12:04:06;;;;;;;20.27;10.10;;;-1.00;99.90;;;;;;4941886;28;20031;-85
2024/01/10 12:06:35;;;;;;;18.58;8.82;;;-1.10;99.90;;;;;;4945528;28;20043;-85
2024/01/10 12:09:07;;;;;;;19.83;9.55;;;-1.10;99.90;;;;;;4931013;28;20039;-86
2024/01/10 12:11:34;;;;;;;21.20;9.55;;;-1.10;99.90;;;;;;4945396;28;20041;-84
2024/01/10 12:14:00;;;;;;;20.25;9.70;;;-1.10;99.90;;;;;;4943266;29;20090;-85
2024/01/10 12:16:26;;;;;;;19.77;9.63;;;-1.10;99.90;;;;;;4943736;28;20042;-84
2024/01/10 12:18:52;;;;;;;19.35;9.80;;;-1.10;99.90;;;;;;4942886;28;20035;-83
2024/01/10 12:21:17;;;;;;;17.52;9.75;;;-1.10;99.90;;;;;;4960417;28;20547;-85
2024/01/10 12:23:43;;;;;;;18.73;10.65;;;-1.10;99.90;;;;;;4927384;29;20035;-85
2024/01/10 12:26:12;;;;;;;19.70;9.50;;;-1.10;99.90;;;;;;4941145;28;20067;-85
2024/01/10 12:28:39;;;;;;;21.27;10.73;;;-1.10;99.90;;;;;;4940676;29;20122;-87
2024/01/10 12:31:07;;;;;;;15.93;8.95;;;-0.90;99.90;;;;;;4950776;28;20113;-86
2024/01/10 12:33:34;;;;;;;17.92;9.52;;;-0.90;99.90;;;;;;4962523;28;20031;-86